Time;durP1;ratioP1;P1;durP2;ratioP2;P2;SDS_P1;SDS_P2;PMS_P1;PMS_P2;Temp;Humidity;BMP_temperature;BMP_pressure;BME280_temperature;BME280_humidity;BME280_pressure;Samples;Min_cycle;Max_cycle;Signal;HPM_P1;HPM_P2
2023/03/19 00:00:27;;;;;;;12.02;11.23;;;;;;;;;;4992812;28;20034;-51
2023/03/19 00:02:52;;;;;;;11.07;10.40;;;;;;;;;;4991845;28;20037;-52
2023/03/19 00:05:17;;;;;;;11.20;10.50;;;;;;;;;;4995907;28;20038;-50
2023/03/19 00:07:43;;;;;;;10.73;10.02;;;;;;;;;;4991664;28;20364;-51
2023/03/19 00:10:09;;;;;;;11.07;10.38;;;;;;;;;;4992346;28;20053;-52
2023/03/19 00:12:35;;;;;;;10.57;9.90;;;;;;;;;;4991315;28;20113;-49
2023/03/19 00:15:00;;;;;;;11.10;10.25;;;;;;;;;;4990179;28;20116;-52
2023/03/19 00:17:25;;;;;;;11.27;10.38;;;;;;;;;;4996453;28;20030;-51
2023/03/19 00:19:51;;;;;;;10.43;9.73;;;;;;;;;;4993672;28;20559;-52
2023/03/19 00:22:16;;;;;;;11.32;10.63;;;;;;;;;;4993625;28;20451;-52
2023/03/19 00:24:42;;;;;;;10.60;9.95;;;;;;;;;;4995592;28;20483;-59
2023/03/19 00:27:07;;;;;;;10.88;10.18;;;;;;;;;;4992342;28;20042;-59
2023/03/19 00:29:33;;;;;;;12.45;11.10;;;;;;;;;;4997192;28;20419;-59
2023/03/19 00:31:58;;;;;;;10.93;10.18;;;;;;;;;;4995742;28;20061;-59
2023/03/19 00:34:23;;;;;;;10.00;9.35;;;;;;;;;;4998944;28;20679;-58
2023/03/19 00:36:49;;;;;;;12.38;11.57;;;;;;;;;;4993922;28;20364;-58
2023/03/19 00:39:14;;;;;;;11.07;10.38;;;;;;;;;;5007638;28;20057;-58
2023/03/19 00:41:40;;;;;;;12.55;11.60;;;;;;;;;;4993093;28;20038;-58
2023/03/19 00:44:05;;;;;;;11.60;10.80;;;;;;;;;;4994076;28;20034;-58
2023/03/19 00:46:31;;;;;;;10.30;9.70;;;;;;;;;;4988406;28;20104;-59
2023/03/19 00:48:57;;;;;;;10.88;10.23;;;;;;;;;;4995083;28;20726;-58
2023/03/19 00:51:24;;;;;;;11.13;10.43;;;;;;;;;;4989143;28;20053;-58
2023/03/19 00:53:50;;;;;;;11.38;10.68;;;;;;;;;;4994035;28;20068;-58
2023/03/19 00:56:17;;;;;;;10.43;9.60;;;;;;;;;;4993941;28;20096;-58
2023/03/19 00:58:43;;;;;;;10.50;9.80;;;;;;;;;;4992549;28;20042;-58
2023/03/19 01:01:11;;;;;;;10.30;9.70;;;;;;;;;;5009688;28;20058;-58
2023/03/19 01:03:37;;;;;;;11.63;10.82;;;;;;;;;;4992133;28;20643;-59
2023/03/19 01:06:03;;;;;;;10.70;9.68;;;;;;;;;;4997134;28;20042;-58
2023/03/19 01:08:29;;;;;;;10.93;10.23;;;;;;;;;;4991426;28;20586;-58
2023/03/19 01:10:54;;;;;;;13.77;10.48;;;;;;;;;;4991875;28;20451;-59
2023/03/19 01:13:19;;;;;;;10.55;9.90;;;;;;;;;;4992278;28;20116;-58
2023/03/19 01:15:45;;;;;;;11.32;10.63;;;;;;;;;;5002162;28;20026;-58
2023/03/19 01:18:10;;;;;;;12.95;11.88;;;;;;;;;;4994765;28;20081;-58
2023/03/19 01:20:38;;;;;;;11.73;11.02;;;;;;;;;;4992457;28;20695;-58
2023/03/19 01:23:05;;;;;;;11.68;10.88;;;;;;;;;;4992642;28;20042;-59
2023/03/19 01:25:30;;;;;;;10.65;9.95;;;;;;;;;;4991185;28;20034;-58
2023/03/19 01:27:56;;;;;;;12.25;11.25;;;;;;;;;;4992068;28;20715;-58
2023/03/19 01:30:21;;;;;;;11.13;10.23;;;;;;;;;;4994706;28;20452;-58
2023/03/19 01:32:47;;;;;;;11.45;10.65;;;;;;;;;;4997847;28;20037;-58
2023/03/19 01:35:12;;;;;;;11.52;10.75;;;;;;;;;;5001880;28;20046;-59
2023/03/19 01:37:38;;;;;;;11.85;11.15;;;;;;;;;;4993313;28;20460;-59
2023/03/19 01:40:04;;;;;;;11.25;10.55;;;;;;;;;;4997197;28;20041;-58
2023/03/19 01:42:31;;;;;;;10.43;9.73;;;;;;;;;;4993541;28;20069;-59
2023/03/19 01:44:57;;;;;;;10.77;10.07;;;;;;;;;;4996595;28;20392;-58
2023/03/19 01:47:29;;;;;;;12.27;11.48;;;;;;;;;;4994357;28;20594;-58
2023/03/19 01:49:57;;;;;;;10.98;10.27;;;;;;;;;;4996232;28;20037;-58
2023/03/19 01:52:26;;;;;;;11.15;10.45;;;;;;;;;;4998769;28;20113;-58
2023/03/19 01:54:53;;;;;;;10.43;9.82;;;;;;;;;;4996351;28;20040;-58
2023/03/19 01:57:21;;;;;;;11.75;11.05;;;;;;;;;;4996865;28;20041;-58
2023/03/19 01:59:55;;;;;;;11.32;10.63;;;;;;;;;;5000856;28;20035;-59
2023/03/19 02:02:29;;;;;;;12.65;11.85;;;;;;;;;;4997474;28;20053;-59
2023/03/19 02:05:03;;;;;;;13.10;12.20;;;;;;;;;;4993341;28;20041;-59
2023/03/19 02:07:31;;;;;;;12.23;11.43;;;;;;;;;;4992628;28;20030;-58
2023/03/19 02:09:58;;;;;;;12.07;11.38;;;;;;;;;;4997775;28;20025;-58
2023/03/19 02:12:23;;;;;;;12.23;11.43;;;;;;;;;;4993710;28;20046;-58
2023/03/19 02:14:49;;;;;;;12.95;11.68;;;;;;;;;;4996283;28;20038;-58
2023/03/19 02:17:14;;;;;;;12.50;11.70;;;;;;;;;;4996409;28;20545;-58
2023/03/19 02:20:19;;;;;;;11.55;10.85;;;;;;;;;;4996555;28;20439;-57
2023/03/19 02:22:56;;;;;;;12.05;11.27;;;;;;;;;;4956141;28;20971;-59
2023/03/19 02:25:44;;;;;;;12.13;11.43;;;;;;;;;;4993382;28;20372;-59
2023/03/19 02:28:10;;;;;;;11.82;11.05;;;;;;;;;;5001895;28;20041;-58
2023/03/19 02:30:36;;;;;;;12.55;11.55;;;;;;;;;;4992249;28;20611;-59
2023/03/19 02:33:02;;;;;;;12.77;11.98;;;;;;;;;;4994239;28;20515;-58
2023/03/19 02:35:31;;;;;;;12.07;11.27;;;;;;;;;;4994300;28;20049;-58
2023/03/19 02:37:56;;;;;;;12.25;11.52;;;;;;;;;;4991675;28;20030;-58
2023/03/19 02:40:27;;;;;;;13.63;12.73;;;;;;;;;;4995702;28;20057;-57
2023/03/19 02:42:53;;;;;;;11.68;10.88;;;;;;;;;;4994972;28;20069;-59
2023/03/19 02:45:18;;;;;;;12.27;11.48;;;;;;;;;;4992578;28;20033;-59
2023/03/19 02:47:44;;;;;;;10.98;10.27;;;;;;;;;;4992140;28;20042;-59
2023/03/19 02:50:09;;;;;;;12.98;12.00;;;;;;;;;;4994553;28;20046;-59
2023/03/19 02:52:35;;;;;;;12.07;11.30;;;;;;;;;;4995077;28;20411;-57
2023/03/19 02:55:01;;;;;;;12.43;11.63;;;;;;;;;;4994878;28;21001;-59
2023/03/19 02:57:26;;;;;;;10.93;10.23;;;;;;;;;;4995249;28;20201;-58
2023/03/19 02:59:51;;;;;;;12.10;11.40;;;;;;;;;;4995455;28;20049;-58
2023/03/19 03:02:17;;;;;;;13.02;12.13;;;;;;;;;;4993917;28;20042;-59
2023/03/19 03:04:42;;;;;;;11.88;11.07;;;;;;;;;;4997535;28;20061;-59
2023/03/19 03:07:08;;;;;;;11.40;10.70;;;;;;;;;;4996439;28;20065;-58
2023/03/19 03:09:33;;;;;;;11.38;10.68;;;;;;;;;;4989520;28;20030;-59
2023/03/19 03:11:59;;;;;;;12.82;12.02;;;;;;;;;;4993878;28;20054;-59
2023/03/19 03:14:25;;;;;;;11.18;10.48;;;;;;;;;;4993605;28;20038;-57
2023/03/19 03:16:50;;;;;;;12.32;11.63;;;;;;;;;;4993747;28;20045;-59
2023/03/19 03:19:15;;;;;;;13.05;12.25;;;;;;;;;;4991547;28;20041;-59
2023/03/19 03:21:41;;;;;;;11.77;11.07;;;;;;;;;;4990767;28;20030;-58
2023/03/19 03:24:08;;;;;;;14.35;13.40;;;;;;;;;;4995962;28;20170;-58
2023/03/19 03:26:37;;;;;;;12.95;12.15;;;;;;;;;;4993006;28;20037;-58
2023/03/19 03:29:03;;;;;;;12.52;11.73;;;;;;;;;;4996611;28;20034;-58
2023/03/19 03:31:29;;;;;;;13.00;12.20;;;;;;;;;;4992688;28;20145;-58
2023/03/19 03:33:54;;;;;;;12.15;11.45;;;;;;;;;;4994387;28;20104;-58
2023/03/19 03:36:20;;;;;;;13.25;12.45;;;;;;;;;;4992283;28;20037;-58
2023/03/19 03:38:45;;;;;;;13.07;12.27;;;;;;;;;;4990590;28;20038;-58
2023/03/19 03:41:11;;;;;;;11.82;11.13;;;;;;;;;;4994675;28;20421;-59
2023/03/19 03:43:36;;;;;;;13.70;12.82;;;;;;;;;;4991540;28;20042;-59
2023/03/19 03:46:02;;;;;;;12.27;11.55;;;;;;;;;;4992046;28;20031;-57
2023/03/19 03:48:27;;;;;;;14.02;13.13;;;;;;;;;;4992861;28;20486;-59
2023/03/19 03:50:53;;;;;;;13.18;12.38;;;;;;;;;;4991607;28;20049;-58
2023/03/19 03:53:18;;;;;;;13.13;12.32;;;;;;;;;;4991056;28;20042;-59
2023/03/19 03:55:44;;;;;;;12.13;11.43;;;;;;;;;;5000202;28;20140;-58
2023/03/19 03:58:09;;;;;;;13.18;12.38;;;;;;;;;;4992840;28;20135;-59
2023/03/19 04:00:35;;;;;;;13.38;12.48;;;;;;;;;;4987756;28;20042;-57
2023/03/19 04:03:01;;;;;;;12.80;12.00;;;;;;;;;;4992936;28;20038;-58
2023/03/19 04:05:27;;;;;;;13.70;12.75;;;;;;;;;;4994075;28;20038;-59
2023/03/19 04:07:52;;;;;;;14.35;13.32;;;;;;;;;;4994592;28;20030;-58
2023/03/19 04:10:18;;;;;;;12.57;11.75;;;;;;;;;;5001053;28;20029;-58
2023/03/19 04:12:44;;;;;;;11.82;11.13;;;;;;;;;;4994389;28;20417;-58
2023/03/19 04:15:10;;;;;;;12.20;11.40;;;;;;;;;;4993160;28;20089;-57
2023/03/19 04:17:36;;;;;;;12.80;12.02;;;;;;;;;;4993548;28;20626;-58
2023/03/19 04:20:03;;;;;;;13.25;12.45;;;;;;;;;;4993552;28;20031;-57
2023/03/19 04:22:28;;;;;;;13.45;12.60;;;;;;;;;;4992641;28;20030;-58
2023/03/19 04:24:54;;;;;;;13.80;12.70;;;;;;;;;;4995184;28;20037;-57
2023/03/19 04:27:19;;;;;;;17.08;15.77;;;;;;;;;;4992819;28;20038;-57
2023/03/19 04:29:45;;;;;;;16.88;15.88;;;;;;;;;;4993685;28;20120;-57
2023/03/19 04:32:10;;;;;;;15.00;14.10;;;;;;;;;;4993298;28;20033;-58
2023/03/19 04:34:36;;;;;;;13.32;12.52;;;;;;;;;;4991511;28;20048;-58
2023/03/19 04:37:02;;;;;;;14.02;13.23;;;;;;;;;;4995266;28;20026;-58
2023/03/19 04:39:27;;;;;;;14.57;13.68;;;;;;;;;;5005578;28;20188;-56
2023/03/19 04:41:52;;;;;;;15.63;14.68;;;;;;;;;;4990744;28;20075;-58
2023/03/19 04:44:18;;;;;;;14.88;13.90;;;;;;;;;;4991573;28;20504;-58
2023/03/19 04:46:44;;;;;;;15.98;15.07;;;;;;;;;;4993846;28;20041;-58
2023/03/19 04:49:11;;;;;;;13.50;12.50;;;;;;;;;;4992037;28;20045;-58
2023/03/19 04:51:36;;;;;;;14.43;13.52;;;;;;;;;;4992369;28;20038;-57
2023/03/19 04:54:04;;;;;;;14.45;13.55;;;;;;;;;;4994845;28;20103;-57
2023/03/19 04:56:30;;;;;;;13.82;13.00;;;;;;;;;;4992587;28;20042;-57
2023/03/19 04:58:55;;;;;;;14.65;13.75;;;;;;;;;;4992887;28;20038;-58
2023/03/19 05:01:21;;;;;;;13.60;12.80;;;;;;;;;;4992881;28;20046;-59
2023/03/19 05:03:46;;;;;;;14.32;13.43;;;;;;;;;;4994032;28;20045;-58
2023/03/19 05:06:12;;;;;;;15.35;14.25;;;;;;;;;;4993695;28;20722;-58
2023/03/19 05:08:37;;;;;;;14.93;14.05;;;;;;;;;;4995662;28;20460;-58
2023/03/19 05:11:03;;;;;;;15.27;14.02;;;;;;;;;;4996181;28;20131;-57
2023/03/19 05:13:28;;;;;;;14.70;13.80;;;;;;;;;;4998068;28;20610;-57
2023/03/19 05:15:54;;;;;;;14.50;13.70;;;;;;;;;;4997403;28;20080;-58
2023/03/19 05:18:20;;;;;;;14.63;13.73;;;;;;;;;;4995930;28;20042;-58
2023/03/19 05:20:46;;;;;;;14.98;14.07;;;;;;;;;;4997154;28;20101;-57
2023/03/19 05:23:12;;;;;;;14.18;13.27;;;;;;;;;;4997526;28;20037;-57
2023/03/19 05:25:38;;;;;;;16.42;15.43;;;;;;;;;;5012234;28;20029;-57
2023/03/19 05:28:03;;;;;;;16.05;15.07;;;;;;;;;;4996151;28;20123;-57
2023/03/19 05:30:30;;;;;;;15.77;14.88;;;;;;;;;;4998150;28;20052;-58
2023/03/19 05:32:57;;;;;;;15.27;14.35;;;;;;;;;;4999667;28;20088;-59
2023/03/19 05:35:23;;;;;;;16.30;15.32;;;;;;;;;;4995807;28;20038;-59
2023/03/19 05:37:48;;;;;;;17.52;16.42;;;;;;;;;;4996907;28;20029;-53
2023/03/19 05:40:15;;;;;;;15.35;14.48;;;;;;;;;;4999482;28;20336;-49
2023/03/19 05:42:41;;;;;;;15.98;14.98;;;;;;;;;;4996152;28;20045;-49
2023/03/19 05:45:06;;;;;;;15.35;14.45;;;;;;;;;;4994963;28;20220;-51
2023/03/19 05:47:33;;;;;;;15.13;14.25;;;;;;;;;;4997991;28;20065;-52
2023/03/19 05:49:58;;;;;;;16.27;15.27;;;;;;;;;;4992844;28;20037;-49
2023/03/19 05:52:23;;;;;;;16.60;15.60;;;;;;;;;;4995013;28;20129;-50
2023/03/19 05:54:49;;;;;;;15.75;14.82;;;;;;;;;;4994046;28;20034;-52
2023/03/19 05:57:15;;;;;;;14.77;13.88;;;;;;;;;;4996977;28;20135;-52
2023/03/19 05:59:41;;;;;;;17.23;16.13;;;;;;;;;;4997922;28;20030;-51
2023/03/19 06:02:06;;;;;;;15.23;14.32;;;;;;;;;;5002935;28;20113;-48
2023/03/19 06:04:32;;;;;;;15.27;14.38;;;;;;;;;;5001109;28;20066;-51
2023/03/19 06:06:57;;;;;;;16.77;15.77;;;;;;;;;;5001565;28;20052;-52
2023/03/19 06:09:23;;;;;;;16.75;15.75;;;;;;;;;;5011608;28;20778;-53
2023/03/19 06:11:49;;;;;;;15.57;14.68;;;;;;;;;;4995441;28;20044;-51
2023/03/19 06:14:14;;;;;;;16.35;15.35;;;;;;;;;;5012337;28;20048;-52
2023/03/19 06:16:40;;;;;;;17.20;16.13;;;;;;;;;;4998795;28;20026;-47
2023/03/19 06:19:05;;;;;;;18.58;17.58;;;;;;;;;;4996011;28;20041;-50
2023/03/19 06:21:30;;;;;;;17.65;16.55;;;;;;;;;;4994709;28;20042;-48
2023/03/19 06:23:56;;;;;;;18.33;17.27;;;;;;;;;;4994790;28;20123;-49
2023/03/19 06:26:22;;;;;;;17.20;16.17;;;;;;;;;;4997320;28;20030;-51
2023/03/19 06:28:47;;;;;;;17.17;16.17;;;;;;;;;;5026140;28;20491;-49
2023/03/19 06:31:13;;;;;;;15.73;14.82;;;;;;;;;;4991936;28;20030;-51
2023/03/19 06:33:39;;;;;;;14.68;13.85;;;;;;;;;;4993982;28;20065;-50
2023/03/19 06:36:04;;;;;;;15.27;14.38;;;;;;;;;;4992696;28;20548;-51
2023/03/19 06:38:30;;;;;;;14.57;13.48;;;;;;;;;;4994313;28;20045;-52
2023/03/19 06:40:55;;;;;;;13.65;12.85;;;;;;;;;;4995335;28;20030;-50
2023/03/19 06:43:21;;;;;;;13.70;12.90;;;;;;;;;;4996375;28;20030;-52
2023/03/19 06:45:46;;;;;;;12.65;11.85;;;;;;;;;;4993696;28;20409;-53
2023/03/19 06:48:11;;;;;;;14.20;13.20;;;;;;;;;;4993673;28;20128;-51
2023/03/19 06:50:37;;;;;;;11.88;11.13;;;;;;;;;;4990502;28;20096;-51
2023/03/19 06:53:03;;;;;;;13.13;12.20;;;;;;;;;;4991915;28;20121;-51
2023/03/19 06:55:29;;;;;;;14.43;13.52;;;;;;;;;;4993172;28;20030;-51
2023/03/19 06:57:55;;;;;;;14.80;13.90;;;;;;;;;;4992019;28;20033;-52
2023/03/19 07:00:21;;;;;;;14.88;13.88;;;;;;;;;;4993001;28;20030;-53
2023/03/19 07:02:46;;;;;;;14.77;13.88;;;;;;;;;;4992636;28;20045;-52
2023/03/19 07:05:12;;;;;;;14.35;13.43;;;;;;;;;;4995595;28;20019;-52
2023/03/19 07:07:37;;;;;;;14.68;13.57;;;;;;;;;;5006479;28;20034;-52
2023/03/19 07:10:03;;;;;;;14.95;14.05;;;;;;;;;;4995473;28;20427;-50
2023/03/19 07:12:28;;;;;;;15.65;14.75;;;;;;;;;;4994212;28;20420;-53
2023/03/19 07:14:57;;;;;;;13.07;12.27;;;;;;;;;;4991605;28;20128;-53
2023/03/19 07:17:23;;;;;;;12.82;11.82;;;;;;;;;;4994011;28;20034;-51
2023/03/19 07:19:49;;;;;;;13.15;12.32;;;;;;;;;;4994459;28;20062;-48
2023/03/19 07:22:16;;;;;;;13.30;12.40;;;;;;;;;;4991394;28;20089;-49
2023/03/19 07:24:41;;;;;;;11.50;10.70;;;;;;;;;;4990267;28;20061;-51
2023/03/19 07:27:07;;;;;;;11.50;10.70;;;;;;;;;;4997247;28;20141;-51
2023/03/19 07:29:32;;;;;;;12.10;11.30;;;;;;;;;;4994266;28;20038;-50
2023/03/19 07:31:57;;;;;;;12.00;11.20;;;;;;;;;;4995118;28;20076;-52
2023/03/19 07:34:23;;;;;;;13.32;12.13;;;;;;;;;;4997146;28;20109;-52
2023/03/19 07:36:50;;;;;;;12.93;12.13;;;;;;;;;;4993508;28;20050;-53
2023/03/19 07:39:15;;;;;;;12.02;11.23;;;;;;;;;;4995383;28;20038;-53
2023/03/19 07:41:43;;;;;;;13.27;12.38;;;;;;;;;;4994393;28;20042;-52
2023/03/19 07:44:10;;;;;;;13.63;12.73;;;;;;;;;;4994448;28;20991;-51
2023/03/19 07:46:36;;;;;;;13.73;12.90;;;;;;;;;;4998716;28;20030;-49
2023/03/19 07:49:01;;;;;;;12.70;11.90;;;;;;;;;;4994941;28;20037;-49
2023/03/19 07:51:26;;;;;;;13.55;12.70;;;;;;;;;;4993310;28;20042;-51
2023/03/19 07:53:52;;;;;;;12.68;11.88;;;;;;;;;;4993268;28;20829;-51
2023/03/19 07:56:17;;;;;;;13.15;12.35;;;;;;;;;;4992733;28;20471;-51
2023/03/19 07:58:42;;;;;;;12.57;11.82;;;;;;;;;;4990082;28;20922;-52
2023/03/19 08:01:08;;;;;;;12.82;12.02;;;;;;;;;;4992089;28;20038;-50
2023/03/19 08:03:34;;;;;;;14.40;13.45;;;;;;;;;;4991777;28;20034;-51
2023/03/19 08:06:00;;;;;;;13.27;12.48;;;;;;;;;;4992617;28;20360;-50
2023/03/19 08:08:25;;;;;;;13.55;12.73;;;;;;;;;;4995226;28;20037;-49
2023/03/19 08:10:54;;;;;;;13.27;12.48;;;;;;;;;;4995554;28;20038;-52
2023/03/19 08:13:20;;;;;;;16.15;15.15;;;;;;;;;;4993362;28;20123;-51
2023/03/19 08:15:45;;;;;;;14.63;13.75;;;;;;;;;;4993326;28;20030;-52
2023/03/19 08:18:11;;;;;;;16.90;15.70;;;;;;;;;;4994836;28;20120;-51
2023/03/19 08:20:36;;;;;;;15.48;14.48;;;;;;;;;;4993530;28;20030;-52
2023/03/19 08:23:01;;;;;;;14.07;13.07;;;;;;;;;;5007321;28;21632;-52
2023/03/19 08:25:31;;;;;;;12.57;11.77;;;;;;;;;;4995214;28;20034;-49
2023/03/19 08:27:57;;;;;;;13.80;13.00;;;;;;;;;;4991932;28;20034;-51
2023/03/19 08:30:22;;;;;;;13.23;12.32;;;;;;;;;;4994866;28;20034;-47
2023/03/19 08:32:49;;;;;;;14.57;13.68;;;;;;;;;;4994316;28;20380;-51
2023/03/19 08:35:15;;;;;;;13.20;12.40;;;;;;;;;;4993737;28;20598;-49
2023/03/19 08:37:40;;;;;;;13.25;12.45;;;;;;;;;;4994616;28;20475;-52
2023/03/19 08:40:07;;;;;;;13.52;12.73;;;;;;;;;;4992910;28;20038;-49
2023/03/19 08:42:33;;;;;;;16.25;15.35;;;;;;;;;;5008036;28;20041;-53
2023/03/19 08:44:58;;;;;;;15.32;14.43;;;;;;;;;;4995261;28;20041;-53
2023/03/19 08:47:24;;;;;;;16.83;15.82;;;;;;;;;;4992909;28;20057;-51
2023/03/19 08:49:50;;;;;;;16.38;15.48;;;;;;;;;;4993606;28;20129;-53
2023/03/19 08:52:16;;;;;;;15.93;15.02;;;;;;;;;;4997785;28;20449;-52
2023/03/19 08:54:42;;;;;;;16.90;15.90;;;;;;;;;;4993417;28;20081;-53
2023/03/19 08:57:07;;;;;;;17.25;16.25;;;;;;;;;;4993065;28;20042;-53
2023/03/19 08:59:32;;;;;;;16.52;15.52;;;;;;;;;;4990523;28;20065;-53
2023/03/19 09:01:58;;;;;;;17.10;16.10;;;;;;;;;;4990077;28;20536;-53
2023/03/19 09:04:23;;;;;;;17.35;16.05;;;;;;;;;;4993090;28;20121;-54
2023/03/19 09:06:51;;;;;;;13.25;12.45;;;;;;;;;;4994468;28;20050;-49
2023/03/19 09:09:18;;;;;;;14.77;13.93;;;;;;;;;;4993757;28;20129;-53
2023/03/19 09:11:45;;;;;;;12.93;12.13;;;;;;;;;;4991571;28;20038;-53
2023/03/19 09:14:11;;;;;;;13.35;12.55;;;;;;;;;;4994301;28;20126;-53
2023/03/19 09:16:36;;;;;;;14.50;13.60;;;;;;;;;;4994000;28;20112;-60
2023/03/19 09:19:02;;;;;;;13.30;12.45;;;;;;;;;;4994291;28;20046;-59
2023/03/19 09:21:27;;;;;;;13.77;12.98;;;;;;;;;;4992567;28;20101;-60
2023/03/19 09:23:53;;;;;;;13.18;12.38;;;;;;;;;;4992513;28;20034;-60
2023/03/19 09:26:18;;;;;;;13.05;12.25;;;;;;;;;;4995139;28;20116;-60
2023/03/19 09:28:44;;;;;;;13.45;12.65;;;;;;;;;;4994302;28;20542;-60
2023/03/19 09:31:10;;;;;;;13.35;12.55;;;;;;;;;;4994299;28;20034;-53
2023/03/19 09:33:36;;;;;;;12.13;11.43;;;;;;;;;;4990147;28;20053;-60
2023/03/19 09:36:01;;;;;;;12.85;12.05;;;;;;;;;;4999200;28;20514;-53
2023/03/19 09:38:27;;;;;;;13.82;12.93;;;;;;;;;;4996241;28;20189;-60
2023/03/19 09:41:04;;;;;;;12.23;11.52;;;;;;;;;;4989119;28;20034;-61
2023/03/19 09:43:42;;;;;;;13.13;12.32;;;;;;;;;;5005406;28;20034;-53
2023/03/19 09:46:16;;;;;;;13.48;12.68;;;;;;;;;;4992300;28;20361;-53
2023/03/19 09:48:53;;;;;;;13.55;12.75;;;;;;;;;;5000865;28;20089;-53
2023/03/19 09:51:32;;;;;;;14.93;13.93;;;;;;;;;;5011249;28;20044;-60
2023/03/19 09:54:19;;;;;;;14.15;13.35;;;;;;;;;;4998506;28;20129;-60
2023/03/19 09:56:44;;;;;;;14.77;13.85;;;;;;;;;;4998778;28;20065;-60
2023/03/19 09:59:10;;;;;;;14.85;13.95;;;;;;;;;;4996256;28;20061;-51
2023/03/19 10:01:39;;;;;;;13.77;12.98;;;;;;;;;;4997508;28;20089;-60
2023/03/19 10:04:23;;;;;;;13.43;12.63;;;;;;;;;;4998925;28;20037;-49
2023/03/19 10:06:56;;;;;;;12.43;11.73;;;;;;;;;;4994632;28;20046;-53
2023/03/19 10:09:36;;;;;;;15.23;13.98;;;;;;;;;;4992679;28;20057;-51
2023/03/19 10:12:12;;;;;;;14.45;13.55;;;;;;;;;;4992204;28;20073;-52
2023/03/19 10:14:59;;;;;;;13.98;13.18;;;;;;;;;;4995943;28;20030;-52
2023/03/19 10:17:32;;;;;;;13.52;12.63;;;;;;;;;;4996921;28;20041;-50
2023/03/19 10:20:15;;;;;;;13.02;12.23;;;;;;;;;;4994846;28;20072;-60
2023/03/19 10:22:47;;;;;;;13.55;12.65;;;;;;;;;;4994917;28;20034;-54
2023/03/19 10:25:19;;;;;;;14.57;13.68;;;;;;;;;;4996168;28;20034;-52
2023/03/19 10:27:49;;;;;;;13.07;12.27;;;;;;;;;;4999445;28;20123;-60
2023/03/19 10:30:16;;;;;;;12.32;11.63;;;;;;;;;;5000190;28;20038;-60
2023/03/19 10:32:44;;;;;;;13.00;12.20;;;;;;;;;;4996253;28;20053;-60
2023/03/19 10:35:26;;;;;;;13.63;12.80;;;;;;;;;;4992859;28;20034;-60
2023/03/19 10:37:54;;;;;;;14.27;13.48;;;;;;;;;;4990646;28;20073;-55
2023/03/19 10:40:35;;;;;;;13.75;12.95;;;;;;;;;;4993257;28;20092;-55
2023/03/19 10:43:21;;;;;;;13.45;12.65;;;;;;;;;;5006541;28;20432;-55
2023/03/19 10:45:48;;;;;;;15.27;14.38;;;;;;;;;;4995801;28;20088;-53
2023/03/19 10:48:15;;;;;;;13.82;13.02;;;;;;;;;;4995971;28;20065;-61
2023/03/19 10:50:59;;;;;;;13.38;12.57;;;;;;;;;;4995945;28;20057;-61
2023/03/19 10:53:36;;;;;;;13.25;12.45;;;;;;;;;;4994067;28;20503;-53
2023/03/19 10:56:15;;;;;;;12.45;11.75;;;;;;;;;;4994253;28;20080;-61
2023/03/19 10:59:01;;;;;;;13.07;12.32;;;;;;;;;;4995902;28;20029;-54
2023/03/19 11:01:31;;;;;;;13.18;11.77;;;;;;;;;;4993666;28;20140;-54
2023/03/19 11:03:58;;;;;;;12.85;12.13;;;;;;;;;;4994887;28;20049;-55
2023/03/19 11:06:26;;;;;;;12.85;12.05;;;;;;;;;;4993416;28;20062;-52
2023/03/19 11:08:58;;;;;;;13.63;12.82;;;;;;;;;;4995145;28;20447;-53
2023/03/19 11:11:25;;;;;;;12.95;12.15;;;;;;;;;;4993688;28;20030;-53
2023/03/19 11:13:50;;;;;;;13.30;12.48;;;;;;;;;;4993562;28;20029;-54
2023/03/19 11:16:16;;;;;;;21.67;13.30;;;;;;;;;;4994006;28;20455;-54
2023/03/19 11:18:42;;;;;;;16.48;15.52;;;;;;;;;;4995022;28;20116;-55
2023/03/19 11:21:21;;;;;;;17.48;16.48;;;;;;;;;;4994681;28;20663;-54
2023/03/19 11:23:52;;;;;;;22.65;21.45;;;;;;;;;;5007772;28;20045;-57
2023/03/19 11:26:20;;;;;;;17.92;16.92;;;;;;;;;;5009638;28;20026;-54
2023/03/19 11:28:49;;;;;;;24.17;22.88;;;;;;;;;;5010190;28;20034;-54
2023/03/19 11:31:19;;;;;;;18.85;17.63;;;;;;;;;;4993255;28;20105;-51
2023/03/19 11:34:00;;;;;;;18.08;17.05;;;;;;;;;;4996645;28;20418;-53
2023/03/19 11:36:48;;;;;;;15.88;14.88;;;;;;;;;;4993355;28;20409;-62
2023/03/19 11:39:27;;;;;;;15.00;14.15;;;;;;;;;;4993706;28;20053;-60
2023/03/19 11:42:25;;;;;;;15.45;14.57;;;;;;;;;;4996794;28;20125;-54
2023/03/19 11:45:17;;;;;;;20.23;18.98;;;;;;;;;;4990556;28;20117;-53
2023/03/19 11:47:50;;;;;;;16.48;15.50;;;;;;;;;;4994354;28;20737;-54
2023/03/19 11:50:50;;;;;;;16.10;15.15;;;;;;;;;;4990905;28;20045;-53
2023/03/19 11:53:30;;;;;;;15.98;15.07;;;;;;;;;;4991332;28;20049;-54
2023/03/19 11:56:25;;;;;;;14.45;13.65;;;;;;;;;;4994551;28;20729;-54
2023/03/19 11:59:12;;;;;;;13.27;12.48;;;;;;;;;;5022817;28;20117;-54
2023/03/19 12:01:49;;;;;;;13.18;12.38;;;;;;;;;;5009592;28;20566;-55
2023/03/19 12:04:35;;;;;;;12.57;11.77;;;;;;;;;;4991271;28;20271;-52
2023/03/19 12:07:22;;;;;;;13.20;12.40;;;;;;;;;;4992893;28;20451;-53
2023/03/19 12:09:48;;;;;;;14.15;13.35;;;;;;;;;;4994181;28;20438;-52
2023/03/19 12:12:25;;;;;;;14.52;13.23;;;;;;;;;;4992713;28;20032;-54
2023/03/19 12:15:12;;;;;;;13.73;12.93;;;;;;;;;;4991154;28;20057;-52
2023/03/19 12:17:58;;;;;;;12.52;11.82;;;;;;;;;;4992857;28;20361;-58
2023/03/19 12:20:29;;;;;;;13.20;12.38;;;;;;;;;;4995152;28;20136;-56
2023/03/19 12:23:22;;;;;;;12.75;11.95;;;;;;;;;;4993528;28;20084;-56
2023/03/19 12:26:06;;;;;;;13.05;12.25;;;;;;;;;;4994566;28;20403;-56
2023/03/19 12:28:34;;;;;;;12.25;11.38;;;;;;;;;;4994759;28;20121;-56
2023/03/19 12:31:28;;;;;;;16.60;15.43;;;;;;;;;;4995099;28;20084;-54
2023/03/19 12:34:28;;;;;;;17.00;16.00;;;;;;;;;;4993728;28;20535;-55
2023/03/19 12:37:12;;;;;;;18.25;17.25;;;;;;;;;;4966397;28;20511;-56
2023/03/19 12:39:44;;;;;;;13.10;12.30;;;;;;;;;;5009934;28;20037;-51
2023/03/19 12:42:15;;;;;;;13.55;12.65;;;;;;;;;;4997128;28;20533;-54
2023/03/19 12:44:46;;;;;;;13.32;12.52;;;;;;;;;;4993377;28;20034;-53
2023/03/19 12:47:16;;;;;;;14.10;13.30;;;;;;;;;;4995736;28;20067;-53
2023/03/19 12:49:57;;;;;;;14.05;13.15;;;;;;;;;;5001794;28;20117;-61
2023/03/19 12:52:38;;;;;;;13.70;12.90;;;;;;;;;;4994375;28;20117;-60
2023/03/19 12:55:16;;;;;;;13.43;12.63;;;;;;;;;;4995465;28;20027;-60
2023/03/19 12:57:47;;;;;;;13.90;13.02;;;;;;;;;;4993975;28;20434;-60
2023/03/19 13:00:25;;;;;;;12.18;11.48;;;;;;;;;;4998172;28;20030;-53
2023/03/19 13:03:05;;;;;;;15.15;13.85;;;;;;;;;;4992562;28;20040;-61
2023/03/19 13:05:40;;;;;;;20.80;19.60;;;;;;;;;;4990998;28;20051;-60
2023/03/19 13:08:16;;;;;;;27.80;26.33;;;;;;;;;;4995701;28;20107;-60
2023/03/19 13:10:41;;;;;;;30.80;29.10;;;;;;;;;;4992356;28;20096;-52
2023/03/19 13:13:47;;;;;;;32.88;30.77;;;;;;;;;;4991069;28;20038;-53
2023/03/19 13:16:18;;;;;;;33.97;32.20;;;;;;;;;;4991465;28;20038;-54
2023/03/19 13:19:23;;;;;;;33.08;31.35;;;;;;;;;;4993219;28;20038;-59
2023/03/19 13:21:53;;;;;;;32.38;30.67;;;;;;;;;;4965135;28;20271;-60
2023/03/19 13:24:25;;;;;;;27.60;26.15;;;;;;;;;;4997384;28;20121;-51
2023/03/19 13:26:52;;;;;;;23.63;22.02;;;;;;;;;;4996308;28;20096;-51
2023/03/19 13:29:24;;;;;;;16.75;15.82;;;;;;;;;;4995947;28;20060;-51
2023/03/19 13:31:51;;;;;;;12.23;11.52;;;;;;;;;;4996331;28;20053;-59
2023/03/19 13:34:17;;;;;;;13.32;12.45;;;;;;;;;;5000343;28;20164;-52
2023/03/19 13:36:45;;;;;;;12.57;11.88;;;;;;;;;;5013396;28;20623;-49
2023/03/19 13:39:30;;;;;;;11.70;11.00;;;;;;;;;;4996162;28;20360;-60
2023/03/19 13:42:05;;;;;;;13.02;12.23;;;;;;;;;;5013127;28;20030;-52
2023/03/19 13:44:30;;;;;;;12.68;11.98;;;;;;;;;;4998958;28;20030;-52
2023/03/19 13:46:56;;;;;;;14.18;13.38;;;;;;;;;;4996669;28;20034;-60
2023/03/19 13:49:32;;;;;;;11.70;11.00;;;;;;;;;;4996288;28;20046;-52
2023/03/19 13:52:03;;;;;;;13.88;13.07;;;;;;;;;;4992847;28;20101;-59
2023/03/19 13:54:37;;;;;;;;;;;;;;;;;;5002595;28;20380;-59
2023/03/19 13:57:18;;;;;;;16.15;15.15;;;;;;;;;;4992708;28;19921;-50
2023/03/19 13:59:46;;;;;;;15.98;15.07;;;;;;;;;;5010290;28;20038;-59
2023/03/19 14:02:20;;;;;;;17.23;16.13;;;;;;;;;;4995600;28;20034;-59
2023/03/19 14:05:00;;;;;;;23.15;21.92;;;;;;;;;;4991115;28;20608;-60
2023/03/19 14:07:30;;;;;;;22.27;21.07;;;;;;;;;;4995039;28;20038;-50
2023/03/19 14:09:56;;;;;;;40.97;38.67;;;;;;;;;;4993690;28;20026;-57
2023/03/19 14:12:29;;;;;;;55.17;52.38;;;;;;;;;;4996653;28;20049;-48
2023/03/19 14:15:00;;;;;;;63.72;60.53;;;;;;;;;;4992780;28;20030;-48
2023/03/19 14:17:32;;;;;;;59.17;56.22;;;;;;;;;;4995773;28;20030;-47
2023/03/19 14:20:16;;;;;;;56.08;53.25;;;;;;;;;;4996908;28;20092;-48
2023/03/19 14:23:15;;;;;;;37.08;35.17;;;;;;;;;;4993754;28;20029;-54
2023/03/19 14:26:04;;;;;;;26.27;24.90;;;;;;;;;;4994836;28;20026;-48
2023/03/19 14:28:41;;;;;;;26.38;25.00;;;;;;;;;;4995668;28;20424;-46
2023/03/19 14:31:19;;;;;;;24.42;22.73;;;;;;;;;;4994214;28;20038;-55